Elyria, OH

10:16 PM EST on November 20, 2014 (GMT -0500)
Lorain County Regional | Change Station
CLOSE
Current Station
Airport
Location: Lorain / Elyria,
Elevation: 794 ft
Nearby Weather Stations

Elev 794 ft 41.35 °N, 82.18 °W | Updated 23 minutes ago

Mostly Cloudy
Mostly Cloudy
23 °F
Feels Like 11 °F
N
13
Wind Variable Wind from West

Today
High -- | Low -- °F
--% Chance of Precip.
Yesterday
High -- | Low -- °F
Precip. -- in
7:22 AM 5:05 PM
Waning Crescent, 2% visible
Pressure 30.16 in
Visibility 10.0 miles
Clouds Few 4200 ft
Mostly Cloudy 5000 ft
Windchill 11 °F
Dew Point 13 °F
Humidity 65%
Rainfall 0.00 in
Snow Depth Not available.
UV 0 out of 12
Pollen .10 out of 12
Air Quality Not available.
Flu Activity Not available.
METAR KLPR 210253Z AUTO 28011KT 10SM FEW042 BKN050 M05/M11 A3013 RMK AO2 SNE14 SLP212 P0000 60000 T10501106 53015 TSNO

More Conditions Fewer Conditions

Pressure 30.16 in
Visibility 10.0 miles
Clouds Few 4200 ft
Mostly Cloudy 5000 ft
Windchill 11 °F
Dew Point 13 °F
Humidity 65%
Rainfall 0.00 in
Snow Depth Not available.
UV 0 out of 12
Pollen .10 out of 12
Air Quality Not available.
Flu Activity Not available.
METAR KLPR 210253Z AUTO 28011KT 10SM FEW042 BKN050 M05/M11 A3013 RMK AO2 SNE14 SLP212 P0000 60000 T10501106 53015 TSNO

More Conditions Fewer Conditions

10-Day Weather Forecast

Almanac

Astronomy

Nov. 20, 2014 Rise Set
Actual Time
Civil Twilight
Nautical Twilight
Astronomical Twilight
Moon
Length of Visible Light
Length of Day
Tomorrow will be .
, % of the Moon is Illuminated

Today's Extremes

State Highs State Lows

Community

WunderPhotos

Upload Photos

1,772,610 photos uploaded!

WunderBlogs® & News

Nearby

Air Quality

  Air Quality AQ Index Pollutant
Not available.

Snow Depth

Station Depth Elevation

Earthquake Activity

City Distance Mag. Time & Date
Minimum magnitude displayed is 2.5.

Coastal Water Temperatures

Place Temperature

Nearby Weather Stations